• Join FlightAware (Why Join?)
  • Login
  • US Flag 
07:41AM EDT


 

Airport Tracker/Info


-or-


 

Live Flight TrackerFlight Track Log ✈ UAL252 ✈ 23-Jun-2013 ✈ KPHX - KDEN

Flight Track Log - Related Links

Times and Time Zones

All times are in EDT time to prevent confusion due to time zone crossing. See the UAL252 flight status page for this flight to view local times or setup timezone preferences in your user account.

Time Position Orientation Groundspeed Altitude Reporting Facility
EDT Latitude Longitude Course Direction KTS MPH feet Rate Location/Type
09:25AM 33.4333 -111.9833 20° North 179 206 2,000  Level Phoenix TRACON
09:26AM 33.4333 -111.9167 90° East 203 234 4,100 1,680 Climbing Phoenix TRACON
09:27AM 33.7537 -111.8599 15° North  Level FlightAware Approximate
09:27AM 33.4425 -111.8675 77° East 240 276 5,300  Level Albuquerque Center
09:28AM 33.8617 -111.8158 20° North  Level FlightAware Approximate
09:28AM 33.4831 -111.7950 56° Northeast 262 302 8,700  Level Albuquerque Center
09:29AM 33.9690 -111.7689 20° North  Level FlightAware Approximate
09:29AM 33.5514 -111.7683 18° North 283 326 11,700  Level Albuquerque Center
09:30AM 34.0763 -111.7220 20° North  Level FlightAware Approximate
09:30AM 33.6392 -111.7667 North 323 372 14,000  Level Albuquerque Center
09:31AM 33.7472 -111.7567 North 387 445 15,200 1,620 Climbing Albuquerque Center
09:32AM 33.8900 -111.7428 North 433 498 17,400 2,040 Climbing Albuquerque Center
09:33AM 34.0156 -111.7322 North 443 510 19,400 1,800 Climbing Albuquerque Center
09:34AM 34.1400 -111.6933 15° North 465 535 21,100 1,500 Climbing Albuquerque Center
09:35AM 34.2572 -111.6481 18° North 481 554 22,500 1,380 Climbing Albuquerque Center
09:36AM 34.3872 -111.5969 18° North 488 562 24,000 1,680 Climbing Albuquerque Center
09:37AM 34.5164 -111.5447 18° North 490 564 26,000 1,440 Climbing Albuquerque Center
09:38AM 34.6181 -111.4283 43° Northeast 509 586 27,000 1,320 Climbing Albuquerque Center
09:39AM 34.7111 -111.2975 49° Northeast 511 588 28,700 1,500 Climbing Albuquerque Center
09:40AM 34.8039 -111.1650 50° Northeast 513 590 30,100 1,560 Climbing Albuquerque Center
09:41AM 34.9142 -111.0053 50° Northeast 514 592 31,900 1,800 Climbing Albuquerque Center
09:42AM 35.0058 -110.8753 49° Northeast 508 585 33,800 1,560 Climbing Albuquerque Center
09:43AM 35.0900 -110.7525 50° Northeast 500 575 35,100 1,200 Climbing Albuquerque Center
09:44AM 35.1842 -110.6047 52° Northeast 495 570 36,300 900 Climbing Albuquerque Center
09:45AM 35.2658 -110.4761 52° Northeast 498 573 37,000 300 Climbing Albuquerque Center
09:46AM 35.3475 -110.3492 52° Northeast 496 571 37,000  Level Albuquerque Center
09:47AM 35.4428 -110.2008 52° Northeast 496 571 37,000  Level Albuquerque Center
09:48AM 35.5239 -110.0747 52° Northeast 493 567 37,000  Level Albuquerque Center
09:49AM 35.6050 -109.9472 52° Northeast 493 567 37,000  Level Albuquerque Center
09:50AM 35.6989 -109.7992 52° Northeast 491 565 37,000  Level Albuquerque Center
09:51AM 35.7792 -109.6714 52° Northeast 492 566 37,000  Level Albuquerque Center
09:52AM 35.8611 -109.5428 52° Northeast 495 570 37,000  Level Albuquerque Center
09:53AM 35.9542 -109.3936 52° Northeast 492 566 37,000  Level Albuquerque Center
09:54AM 36.0336 -109.2656 52° Northeast 492 566 37,000  Level Denver Center
09:55AM 36.1142 -109.1394 52° Northeast 487 560 37,000  Level Denver Center
09:56AM 36.2081 -108.9869 53° Northeast 489 563 37,000  Level Denver Center
09:57AM 36.2897 -108.8567 52° Northeast 491 565 37,000  Level Denver Center
09:58AM 36.3692 -108.7261 53° Northeast 491 565 37,000  Level Denver Center
09:59AM 36.4472 -108.5972 53° Northeast 489 563 37,000  Level Denver Center
10:00AM 36.5375 -108.4475 53° Northeast 484 557 37,000  Level Denver Center
10:01AM 36.6289 -108.3347 45° Northeast 482 555 37,000  Level Denver Center
10:02AM 36.7417 -108.2117 41° Northeast 483 556 37,000  Level Denver Center
10:03AM 36.8383 -108.1056 41° Northeast 482 555 37,000  Level Denver Center
10:04AM 36.9339 -107.9986 42° Northeast 483 556 37,000  Level Denver Center
10:05AM 37.0461 -107.8733 42° Northeast 485 558 37,000  Level Denver Center
10:06AM 37.1417 -107.7678 41° Northeast 480 552 37,000  Level Denver Center
10:07AM 37.2539 -107.6431 41° Northeast 482 555 37,000  Level Denver Center
10:08AM 37.3494 -107.5342 42° Northeast 482 555 37,000  Level Denver Center
10:09AM 37.4436 -107.4269 42° Northeast 479 551 37,000  Level Denver Center
10:11AM 37.5542 -107.3025 42° Northeast 478 550 37,000  Level Denver Center
10:12AM 37.6492 -107.1942 42° Northeast 479 551 37,000  Level Denver Center
10:13AM 37.7603 -107.0692 42° Northeast 480 552 37,000  Level Denver Center
10:14AM 37.8633 -106.9494 43° Northeast 482 555 37,000  Level Denver Center
10:15AM 37.9583 -106.8411 42° Northeast 480 552 37,000 -300 Level Denver Center
10:16AM 38.0531 -106.7308 42° Northeast 484 557 36,400 -1,920 Descending Denver Center
10:17AM 38.1800 -106.5853 42° Northeast 485 558 32,800 -3,360 Descending Denver Center
10:18AM 38.2878 -106.4583 43° Northeast 484 557 29,500 -2,880 Descending Denver Center
10:19AM 38.3881 -106.3417 42° Northeast 488 562 27,000 -1,260 Descending Denver Center
10:20AM 38.4681 -106.2478 43° Northeast 489 563 27,000  Level Denver Center
10:21AM 38.5881 -106.1067 43° Northeast 482 555 27,000 -60 Level Denver Center
10:22AM 38.6808 -105.9972 43° Northeast 488 562 26,900 -660 Descending Denver Center
10:23AM 38.7956 -105.8600 43° Northeast 489 563 25,700 -1,020 Descending Denver Center
10:24AM 38.8725 -105.7672 43° Northeast 482 555 24,900 -1,440 Descending Denver Center
10:25AM 38.9947 -105.6208 43° Northeast 473 544 22,800 -1,980 Descending Denver Center
10:26AM 39.0853 -105.5128 43° Northeast 464 534 20,900 -1,800 Descending Denver Center
10:27AM 39.1753 -105.4028 43° Northeast 420 483 19,100 -1,740 Descending Denver Center
10:28AM 39.2531 -105.3106 43° Northeast 386 444 17,400 -1,380 Descending Denver Center
10:29AM 39.2808 -105.1797 75° East 359 413 16,300 -1,080 Descending Denver Center
10:30AM 39.3036 -105.0644 76° East 338 389 15,000 -900 Descending Denver Center
10:31AM 39.3278 -104.9308 77° East 313 360 14,300 -780 Descending Denver Center
10:33AM 39.3500 -104.8303 74° East 278 320 13,400 -1,020 Descending Denver Center
10:34AM 39.4169 -104.7906 25° Northeast 265 305 12,200 -1,080 Descending Denver Center
10:35AM 39.4875 -104.7589 19° North 268 308 11,200 -1,200 Descending Denver Center
10:36AM 39.5606 -104.7269 19° North 260 299 9,800 -1,080 Descending Denver Center
10:37AM 39.6247 -104.6975 19° North 248 285 9,000 -780 Descending Denver Center